Latest Weather Observations for Lajamanu

IDD60801

Issued at 2:01 pm CST Sunday 1 March 2015 (issued every 30 minutes, with the page automatically refreshed every 10 minutes)

About weather observations | Map of weather stations | Latest weather observations for NT | Other Formats
Station Details ID: 014829 Name: LAJAMANU AIRPORT Lat: -18.33 Lon: 130.64 Height: 315.6 m
Data from the previous 72 hours. | See also: Recent months at Lajamanu
Date/Time
CST
Temp
°C
App
Temp
°C
Dew
Point
Rel
Hum
%
Delta-T
°C
Wind Press
QNH
hPa
Press
MSL
hPa
Rain
since 9 am
mm
Dir
 
Spd
km/h
Gust
km/h
Spd
kts
Gust
kts
01/02:00pm 35.4 38.2 20.9 42 9.9 WNW 7 15 4 8 1006.0 1003.8 0.4
01/01:30pm 34.8 37.5 20.7 43 9.6 WNW 7 15 4 8 1006.4 1004.1 0.4
01/01:00pm 33.9 36.1 20.3 45 9.2 SW 9 15 5 8 1006.8 1004.5 0.4
01/12:30pm 33.5 36.7 21.6 49 8.2 SSW 7 17 4 9 1007.2 1004.9 0.4
01/12:00pm 32.8 36.2 22.0 53 7.4 SSW 7 13 4 7 1007.8 1005.5 0.4
01/11:30am 31.9 34.9 22.6 58 6.4 SSW 11 17 6 9 1007.9 1005.6 0.4
01/11:00am 30.2 32.9 22.9 65 5.1 SW 13 17 7 9 1008.0 1005.7 0.4
01/10:30am 28.7 31.1 22.9 71 4.0 SW 15 20 8 11 1008.1 1005.9 0.2
01/10:00am 26.6 30.1 23.5 83 2.1 WSW 11 17 6 9 1007.9 1005.6 0.2
01/09:30am 25.4 29.1 23.3 88 1.4 NW 9 13 5 7 1007.8 1005.5 0.2
01/09:00am 25.6 29.2 22.3 82 2.2 SW 7 11 4 6 1008.2 1005.8 0.0
01/08:30am 25.8 28.1 22.1 80 2.5 SE 13 19 7 10 1008.6 1006.2 0.0
01/08:00am 25.8 29.5 22.5 82 2.2 ESE 7 11 4 6 1008.9 1006.5 0.0
01/07:30am 25.1 29.2 22.2 84 2.0 W 4 7 2 4 1008.1 1005.7 0.0
01/07:00am 24.8 28.3 22.1 85 1.8 WNW 7 9 4 5 1007.6 1005.1 0.0
01/06:30am 24.9 28.3 22.0 84 2.0 W 7 9 4 5 1007.5 1005.0 0.0
01/06:00am 25.1 29.1 22.0 83 2.1 WSW 4 9 2 5 1007.2 1004.7 0.0
01/05:30am 25.3 28.8 22.2 83 2.1 SW 7 9 4 5 1006.8 1004.3 0.0
01/05:00am 25.1 28.5 22.0 83 2.1 WNW 7 9 4 5 1005.8 1003.4 0.0
01/04:30am 25.3 28.9 22.0 82 2.2 W 6 9 3 5 1005.4 1003.0 0.0
01/04:00am 25.5 29.1 22.4 83 2.1 W 7 11 4 6 1005.7 1003.3 0.0
01/03:30am 25.7 29.3 22.4 82 2.2 WSW 7 9 4 5 1005.8 1003.4 0.0
01/03:00am 25.9 29.6 22.2 80 2.5 WNW 6 7 3 4 1006.5 1004.0 0.0
01/02:30am 26.8 30.1 21.8 74 3.4 WSW 7 11 4 6 1007.1 1004.6 0.0
01/02:00am 27.4 30.5 22.1 73 3.6 SSW 9 11 5 6 1007.3 1004.8 0.0
01/01:30am 26.7 30.3 23.0 80 2.5 WSW 9 9 5 5 1007.9 1005.4 0.0
01/01:00am 26.6 30.7 22.9 80 2.5 WNW 6 7 3 4 1007.8 1005.3 0.0
01/12:30am 26.7 30.6 23.0 80 2.5 WNW 7 9 4 5 1007.7 1005.2 0.0
01/12:00am 26.8 30.9 23.3 81 2.4 WNW 7 9 4 5 1007.5 1005.0 0.0
 
Date/Time
CST
Temp
°C
App
Temp
°C
Dew
Point
Rel
Hum
%
Delta-T
°C
Wind Press
QNH
hPa
Press
MSL
hPa
Rain
since 9 am
mm
Dir
 
Spd
km/h
Gust
km/h
Spd
kts
Gust
kts
28/11:30pm 27.6 31.8 23.2 77 3.0 W 6 7 3 4 1007.6 1005.1 0.0
28/11:00pm 28.1 32.2 23.2 74 3.4 SSW 7 9 4 5 1007.5 1005.0 0.0
28/10:30pm 28.2 32.1 23.6 76 3.2 SW 9 11 5 6 1007.4 1004.9 0.0
28/10:00pm 28.3 33.0 23.9 77 3.1 WNW 6 7 3 4 1007.2 1004.7 0.0
28/09:30pm 29.0 33.1 23.0 70 4.2 W 6 7 3 4 1007.1 1004.6 0.0
28/09:00pm 29.4 33.9 23.6 71 4.0 W 6 7 3 4 1006.8 1004.3 0.0
28/08:30pm 29.6 33.2 22.3 65 5.0 SW 7 9 4 5 1006.4 1003.9 0.0
28/08:00pm 30.0 33.0 21.9 62 5.5 WSW 9 11 5 6 1006.0 1003.6 0.0
28/07:30pm 31.1 34.1 21.9 58 6.3 SSW 9 11 5 6 1005.7 1003.3 0.0
28/07:00pm 32.1 33.9 20.4 50 7.9 SSW 11 13 6 7 1005.6 1003.2 0.0
28/06:30pm 33.5 35.6 21.0 48 8.5 SSW 11 17 6 9 1005.6 1003.2 0.0
28/06:00pm 33.8 34.8 20.2 44 9.2 SSW 15 20 8 11 1005.5 1003.1 0.0
28/05:30pm 33.8 35.0 20.6 46 9.0 SSW 15 20 8 11 1005.4 1003.0 0.0
28/05:00pm 33.9 34.7 20.6 45 9.0 SSW 17 26 9 14 1005.6 1003.2 0.0
28/04:30pm 34.5 35.4 20.1 43 9.7 SSW 15 22 8 12 1005.7 1003.3 0.0
28/04:00pm 34.4 35.8 20.4 44 9.5 SW 13 17 7 9 1005.6 1003.2 0.0
28/03:30pm 34.6 36.7 20.9 44 9.4 SW 11 19 6 10 1005.7 1003.3 0.0
28/03:00pm 33.6 35.9 21.4 48 8.4 SW 11 15 6 8 1006.2 1003.7 0.0
28/02:30pm 34.2 36.6 22.3 50 8.3 SW 13 20 7 11 1006.4 1003.9 0.0
28/02:00pm 33.2 35.2 20.7 47 8.5 WSW 11 17 6 9 1007.1 1004.6 0.0
28/01:30pm 33.4 36.2 21.5 49 8.2 SW 9 15 5 8 1007.8 1005.3 0.0
28/01:00pm 32.9 35.3 20.8 49 8.2 W 9 13 5 7 1008.3 1005.9 0.0
28/12:30pm 32.3 34.5 20.5 49 8.0 W 9 19 5 10 1008.8 1006.4 0.0
28/12:00pm 31.2 33.1 20.5 53 7.2 W 11 17 6 9 1009.2 1006.8 0.0
28/11:30am 30.1 32.5 21.5 60 5.8 W 11 15 6 8 1009.7 1007.2 0.0
28/11:00am 28.6 29.8 20.6 62 5.3 WSW 15 22 8 12 1010.2 1007.7 0.0
28/10:30am 28.4 29.9 21.2 65 4.9 WSW 15 22 8 12 1010.3 1007.8 0.0
28/10:00am 27.2 29.0 21.2 69 4.0 WSW 13 20 7 11 1010.1 1007.6 0.0
28/09:30am 26.8 28.3 22.0 75 3.3 WSW 17 20 9 11 1010.1 1007.6 0.0
28/09:00am 25.5 27.4 21.4 78 2.8 WSW 13 19 7 10 1009.7 1007.2 4.4
28/08:30am 24.9 27.3 21.6 82 2.2 WSW 11 17 6 9 1008.9 1006.5 4.4
28/08:00am 23.9 25.8 21.4 86 1.7 WSW 13 17 7 9 1008.1 1005.7 4.4
28/07:30am 23.3 26.0 21.4 89 1.3 NW 9 13 5 7 1007.8 1005.3 4.4
28/07:00am 23.1 25.6 21.0 88 1.4 W 9 13 5 7 1007.6 1005.1 4.4
28/06:30am 22.9 25.1 21.2 90 1.1 WNW 11 15 6 8 1006.9 1004.4 4.4
28/06:00am 22.9 25.1 21.2 90 1.1 W 11 15 6 8 1006.6 1004.1 4.4
28/05:30am 22.8 24.0 21.4 92 0.9 WNW 17 28 9 15 1007.1 1004.6 4.4
28/05:00am 22.7 24.4 21.0 90 1.1 WNW 13 17 7 9 1008.2 1005.8 3.2
28/04:30am 22.8 24.6 20.3 86 1.6 NW 11 17 6 9 1007.5 1005.0 2.0
28/04:00am 23.3 26.0 20.6 85 1.8 NE 7 11 4 6 1008.6 1006.2 1.2
28/03:30am 23.4 24.8 20.3 83 2.0 ENE 13 22 7 12 1008.8 1006.4 0.4
28/03:00am 23.9 20.6 19.2 75 3.0 SSE 35 56 19 30 1007.8 1005.3 0.2
28/02:49am 26.8 26.5 19.2 63 5.0 S 19 50 10 27 1007.3 1004.8 0.2
28/02:48am 27.5 28.1 20.3 65 4.8 SSW 17 43 9 23 1007.3 1004.8 0.2
28/02:30am 27.4 29.9 20.2 65 4.8 W 7 11 4 6 1006.5 1004.0 0.2
28/02:00am 27.7 30.4 20.3 64 4.9 W 6 9 3 5 1006.6 1004.1 0.2
28/01:30am 28.0 29.9 19.8 61 5.4 NW 9 11 5 6 1006.0 1003.6 0.2
28/01:00am 28.6 30.0 19.5 58 6.0 NW 11 17 6 9 1006.9 1004.4 0.2
28/12:30am 28.7 29.6 19.3 56 6.2 NW 13 17 7 9 1007.0 1004.5 0.2
28/12:00am 28.9 29.7 19.8 58 6.0 NNW 15 22 8 12 1007.6 1005.1 0.2
 
Date/Time
CST
Temp
°C
App
Temp
°C
Dew
Point
Rel
Hum
%
Delta-T
°C
Wind Press
QNH
hPa
Press
MSL
hPa
Rain
since 9 am
mm
Dir
 
Spd
km/h
Gust
km/h
Spd
kts
Gust
kts
27/11:30pm 28.5 29.8 20.2 60 5.5 NNW 13 17 7 9 1008.0 1005.5 0.2
27/11:00pm 28.7 30.1 20.4 60 5.5 NNW 13 17 7 9 1007.8 1005.3 0.2
27/10:30pm 28.8 30.7 21.3 64 5.1 NNW 13 15 7 8 1007.7 1005.2 0.2
27/10:00pm 29.0 31.0 21.5 64 5.1 NNW 13 15 7 8 1007.2 1004.7 0.2
27/09:30pm 29.5 32.2 22.2 65 5.0 NNW 11 13 6 7 1006.9 1004.4 0.2
27/09:00pm 30.2 33.4 23.1 65 4.9 NNW 11 13 6 7 1006.4 1003.9 0.2
27/08:30pm 30.6 33.9 22.5 62 5.6 NNW 9 11 5 6 1005.9 1003.5 0.2
27/08:00pm 31.3 34.8 21.8 57 6.5 WNW 6 7 3 4 1005.4 1003.0 0.2
27/07:30pm 32.0 35.3 21.5 53 7.2 W 6 7 3 4 1004.9 1002.4 0.2
27/07:00pm 33.7 36.1 20.1 44 9.2 SW 7 9 4 5 1004.4 1001.9 0.2
27/06:30pm 35.2 36.6 19.6 40 10.5 SW 11 15 6 8 1004.2 1001.7 0.2
27/06:00pm 36.0 38.2 20.3 40 10.7 S 9 13 5 7 1004.0 1001.5 0.2
27/05:30pm 35.7 37.5 19.6 39 10.8 SSW 9 15 5 8 1004.2 1001.7 0.2
27/05:00pm 36.2 37.3 19.6 37 11.2 WSW 13 19 7 10 1004.4 1001.9 0.2
27/04:30pm 36.5 37.7 20.7 39 10.8 SW 15 24 8 13 1004.7 1002.2 0.2
27/04:00pm 36.0 36.8 20.7 41 10.4 SW 17 22 9 12 1005.1 1002.6 0.2
27/03:30pm 35.5 35.1 19.4 38 10.8 SW 20 32 11 17 1005.4 1003.0 0.2
27/03:00pm 35.4 35.6 19.3 38 10.8 SW 17 30 9 16 1005.6 1003.2 0.2
27/02:30pm 34.5 34.5 18.9 39 10.4 SW 17 24 9 13 1006.2 1003.7 0.2
27/02:00pm 34.2 33.9 18.3 39 10.5 WSW 17 24 9 13 1006.8 1004.3 0.2
27/01:30pm 33.4 33.3 18.7 41 9.7 SW 17 24 9 13 1007.4 1004.9 0.2
27/01:00pm 32.3 32.4 19.2 46 8.7 SW 17 22 9 12 1008.0 1005.5 0.2
27/12:30pm 31.0 32.2 20.6 54 7.0 WSW 15 20 8 11 1008.7 1006.3 0.2
27/12:00pm 29.6 31.7 21.0 60 5.8 WSW 11 15 6 8 1009.6 1007.1 0.2
27/11:30am 28.4 30.0 20.7 63 5.2 WSW 13 19 7 10 1009.8 1007.3 0.2
27/11:00am 28.0 30.3 20.6 64 4.9 WNW 9 13 5 7 1010.2 1007.7 0.2
27/10:30am 27.3 29.7 21.6 71 3.9 WNW 11 15 6 8 1010.6 1008.1 0.0
27/10:00am 26.3 28.5 21.1 73 3.5 NNW 11 15 6 8 1011.0 1008.6 0.0
27/09:30am 25.4 27.7 20.6 75 3.2 WNW 9 15 5 8 1011.0 1008.6 0.0
27/09:00am 25.5 28.0 21.0 76 3.0 NNE 9 13 5 7 1010.8 1008.3 2.4
27/08:30am 25.5 28.3 20.5 74 3.3 NE 6 7 3 4 1010.5 1008.0 2.4
27/08:00am 25.0 26.9 20.5 76 3.0 N 11 15 6 8 1009.7 1007.2 2.4
27/07:30am 24.4 28.5 20.7 80 2.5 CALM 0 0 0 0 1008.7 1006.3 2.4
27/07:00am 24.3 26.1 20.4 79 2.6 N 11 19 6 10 1008.1 1005.7 2.4
27/06:30am 24.3 26.5 20.4 79 2.6 W 9 13 5 7 1007.3 1004.8 2.4
27/06:00am 24.2 26.6 20.1 78 2.7 W 7 11 4 6 1006.9 1004.4 2.4
27/05:30am 24.1 25.4 20.2 79 2.6 NW 13 15 7 8 1006.9 1004.4 2.4
27/05:00am 24.4 26.3 21.3 83 2.1 NNW 13 17 7 9 1007.1 1004.6 2.4
27/04:30am 24.4 26.2 21.9 86 1.7 NNW 15 20 8 11 1006.9 1004.4 2.4
27/04:00am 24.3 25.8 22.0 87 1.5 N 17 22 9 12 1007.6 1005.1 2.2
27/03:30am 23.6 24.8 20.7 84 1.9 NE 15 20 8 11 1008.0 1005.5 2.0
27/03:00am 23.1 23.0 19.9 82 2.1 NE 20 30 11 16 1008.3 1005.9 2.0
27/02:30am 25.4 25.4 19.8 71 3.7 NE 19 33 10 18 1008.2 1005.8 2.0
27/02:00am 26.6 30.1 22.2 77 3.0 WNW 7 13 4 7 1007.1 1004.6 2.0
27/01:30am 26.5 29.3 22.3 78 2.9 WNW 11 15 6 8 1006.2 1003.7 2.0
27/01:00am 26.5 29.8 22.6 79 2.7 WNW 9 11 5 6 1006.7 1004.2 2.0
27/12:30am 26.9 30.5 22.3 76 3.1 W 7 9 4 5 1007.1 1004.6 2.0
27/12:00am 27.2 30.4 22.4 75 3.3 W 9 15 5 8 1007.5 1005.0 2.0
 
Date/Time
CST
Temp
°C
App
Temp
°C
Dew
Point
Rel
Hum
%
Delta-T
°C
Wind Press
QNH
hPa
Press
MSL
hPa
Rain
since 9 am
mm
Dir
 
Spd
km/h
Gust
km/h
Spd
kts
Gust
kts
26/11:30pm 27.1 30.7 23.1 79 2.8 W 9 13 5 7 1007.5 1005.0 2.0
26/11:00pm 27.5 31.5 23.1 77 3.0 WNW 7 9 4 5 1007.4 1004.9 2.0
26/10:30pm 27.6 31.5 23.0 76 3.2 W 7 11 4 6 1007.1 1004.6 2.0
26/10:00pm 27.9 31.5 23.1 75 3.3 WNW 9 11 5 6 1007.2 1004.7 2.0
26/09:30pm 28.3 31.5 23.0 73 3.7 WNW 11 17 6 9 1007.1 1004.6 2.0
26/09:00pm 28.6 30.9 22.8 71 4.0 NW 15 19 8 10 1006.5 1004.0 2.0
26/08:30pm 29.0 32.1 22.2 66 4.7 WNW 9 13 5 7 1006.0 1003.6 2.0
26/08:00pm 30.0 31.0 21.7 61 5.7 NW 19 28 10 15 1005.8 1003.4 2.0
26/07:30pm 30.7 35.8 24.6 70 4.3 NW 6 9 3 5 1005.0 1002.5 2.0
26/07:00pm 31.3 34.4 22.9 61 5.8 NW 11 13 6 7 1004.3 1001.8 2.0
26/06:30pm 32.9 36.5 23.8 58 6.4 WNW 11 15 6 8 1004.1 1001.6 2.0
26/06:00pm 31.9 35.8 24.2 63 5.4 NW 11 15 6 8 1004.1 1001.6 2.0
26/05:35pm 30.2 30.9 18.9 50 7.4 WSW 13 28 7 15 1004.7 1002.2 1.0
26/05:30pm 35.2 37.9 22.2 47 9.0 WNW 11 20 6 11 1004.4 1001.9 0.0
26/05:00pm 39.0 40.6 18.3 30 13.8 N 7 15 4 8 1003.9 1001.4 0.0
26/04:30pm 38.3 39.0 17.1 28 13.9 E 9 13 5 7 1003.8 1001.3 0.0
26/04:00pm 38.5 38.8 17.8 29 13.7 E 13 19 7 10 1003.9 1001.4 0.0
26/03:30pm 36.2 35.9 16.4 31 12.8 E 13 24 7 13 1004.1 1001.6 0.0
26/03:00pm 38.0 38.5 18.4 31 13.1 E 13 19 7 10 1004.7 1002.2 0.0
26/02:30pm 38.4 38.2 17.7 29 13.7 E 15 20 8 11 1005.3 1002.9 0.0

Other Formats:

Comma delimited format used in spreadsheet applications
http://www.bom.gov.au/fwo/IDD60801/IDD60801.94231.axf

JavaScript Object Notation format (JSON) in row-major order
http://www.bom.gov.au/fwo/IDD60801/IDD60801.94231.json